createdAt,value
2023-03-27T00:01:13.015Z,52.30
2023-03-27T00:03:41.496Z,52.19
2023-03-27T00:06:17.445Z,49.88
2023-03-27T00:08:50.586Z,49.77
2023-03-27T00:11:18.062Z,51.49
2023-03-27T00:13:50.263Z,50.13
2023-03-27T00:16:22.949Z,51.98
2023-03-27T00:18:49.717Z,50.82
2023-03-27T00:21:16.844Z,52.28
2023-03-27T00:23:43.948Z,51.54
2023-03-27T00:26:12.204Z,50.91
2023-03-27T00:28:39.334Z,47.27
2023-03-27T00:31:11.846Z,52.68
2023-03-27T00:33:38.953Z,50.36
2023-03-27T00:36:06.311Z,50.67
2023-03-27T00:38:34.042Z,49.40
2023-03-27T00:41:01.274Z,50.44
2023-03-27T00:43:36.824Z,48.40
2023-03-27T00:46:08.135Z,48.64
2023-03-27T00:48:37.179Z,49.33
2023-03-27T00:51:05.916Z,49.75
2023-03-27T00:53:33.695Z,49.61
2023-03-27T00:56:07.775Z,49.02
2023-03-27T00:58:44.826Z,48.12
2023-03-27T01:01:15.660Z,49.57
2023-03-27T01:03:45.576Z,48.11
2023-03-27T01:06:17.066Z,47.48
2023-03-27T01:08:46.120Z,47.97
2023-03-27T01:11:19.641Z,47.25
2023-03-27T01:14:01.659Z,47.53
2023-03-27T01:16:43.470Z,47.24
2023-03-27T01:19:46.024Z,49.37
2023-03-27T01:22:24.689Z,48.85
2023-03-27T01:25:17.619Z,49.35
2023-03-27T01:28:24.950Z,49.87
2023-03-27T01:31:14.629Z,48.47
2023-03-27T01:34:03.849Z,48.97
2023-03-27T01:36:52.353Z,48.59
2023-03-27T01:39:36.437Z,50.18
2023-03-27T01:42:18.878Z,51.37
2023-03-27T01:45:10.807Z,49.40
2023-03-27T01:48:04.080Z,52.14
2023-03-27T01:50:37.388Z,51.78
2023-03-27T01:53:12.276Z,50.33
2023-03-27T01:55:45.518Z,50.61
2023-03-27T01:58:17.141Z,51.05
2023-03-27T02:00:51.098Z,49.91
2023-03-27T02:03:31.788Z,50.45
2023-03-27T02:06:11.732Z,53.40
2023-03-27T02:08:53.487Z,51.09
2023-03-27T02:11:23.873Z,51.65
2023-03-27T02:13:56.769Z,53.64
2023-03-27T02:16:28.839Z,52.14
2023-03-27T02:19:01.623Z,54.55
2023-03-27T02:21:31.461Z,53.47
2023-03-27T02:24:02.162Z,56.64
2023-03-27T02:26:33.608Z,53.72
2023-03-27T02:29:19.478Z,57.29
2023-03-27T02:31:49.598Z,55.40
2023-03-27T02:34:33.789Z,58.54
2023-03-27T02:37:21.402Z,62.49
2023-03-27T02:40:59.350Z,58.06
2023-03-27T02:43:59.161Z,60.01
2023-03-27T02:46:50.811Z,61.16
2023-03-27T02:49:23.558Z,58.38
2023-03-27T02:51:58.127Z,60.04
2023-03-27T02:54:34.469Z,60.84
2023-03-27T02:57:09.076Z,57.09
2023-03-27T03:00:00.726Z,60.13
2023-03-27T03:02:33.743Z,63.80
2023-03-27T03:05:17.952Z,58.25
2023-03-27T03:07:46.580Z,61.34
2023-03-27T03:10:15.190Z,59.68
2023-03-27T03:12:42.522Z,59.78
2023-03-27T03:15:11.248Z,65.71
2023-03-27T03:17:38.342Z,59.87
2023-03-27T03:20:07.349Z,62.92
2023-03-27T03:22:34.094Z,63.99
2023-03-27T03:25:00.912Z,59.20
2023-03-27T03:27:29.371Z,59.19
2023-03-27T03:30:05.907Z,57.78
2023-03-27T03:32:39.618Z,60.55
2023-03-27T03:35:09.011Z,60.98
2023-03-27T03:37:39.108Z,58.97
2023-03-27T03:40:13.265Z,57.74
2023-03-27T03:42:46.960Z,57.46
2023-03-27T03:45:14.692Z,59.51
2023-03-27T03:47:42.405Z,60.59
2023-03-27T03:50:11.430Z,57.41
2023-03-27T03:52:38.705Z,60.53
2023-03-27T03:55:06.664Z,58.55
2023-03-27T03:57:33.573Z,57.53
2023-03-27T04:00:12.310Z,61.12
2023-03-27T04:02:54.068Z,62.80
2023-03-27T04:05:22.103Z,62.88
2023-03-27T04:07:52.716Z,57.26
2023-03-27T04:10:31.353Z,58.82
2023-03-27T04:13:00.548Z,57.87
2023-03-27T04:15:33.882Z,62.42
2023-03-27T04:18:15.317Z,59.65
2023-03-27T04:20:43.121Z,63.59
2023-03-27T04:23:14.134Z,61.55
2023-03-27T04:25:41.342Z,59.02
2023-03-27T04:28:10.383Z,62.83
2023-03-27T04:30:44.314Z,65.12
2023-03-27T04:33:30.949Z,59.65
2023-03-27T04:36:31.321Z,61.07
2023-03-27T04:39:06.354Z,59.04
2023-03-27T04:41:33.131Z,61.14
2023-03-27T04:44:00.380Z,64.32
2023-03-27T04:46:29.370Z,59.10
2023-03-27T04:49:01.748Z,60.18
2023-03-27T04:51:44.157Z,59.15
2023-03-27T04:54:12.103Z,59.84
2023-03-27T04:56:43.386Z,58.95
2023-03-27T04:59:10.666Z,56.74
2023-03-27T05:01:37.663Z,56.61
2023-03-27T05:04:10.192Z,59.53
2023-03-27T05:06:48.671Z,57.78
2023-03-27T05:09:17.237Z,59.05
2023-03-27T05:11:44.849Z,61.58
2023-03-27T05:14:11.611Z,63.68
2023-03-27T05:16:41.292Z,62.62
2023-03-27T05:19:09.709Z,63.95
2023-03-27T05:21:41.143Z,62.58
2023-03-27T05:24:11.150Z,62.92
2023-03-27T05:26:39.437Z,64.02
2023-03-27T05:29:06.492Z,63.34
2023-03-27T05:31:37.402Z,68.77
2023-03-27T05:34:29.335Z,60.23
2023-03-27T05:37:05.768Z,63.91
2023-03-27T05:39:36.843Z,63.32
2023-03-27T05:42:08.678Z,64.44
2023-03-27T05:44:35.422Z,63.77
2023-03-27T05:47:02.209Z,63.57
2023-03-27T05:49:32.427Z,64.27
2023-03-27T05:52:08.688Z,66.22
2023-03-27T05:54:35.865Z,62.19
2023-03-27T05:57:08.014Z,62.60
2023-03-27T05:59:35.828Z,60.60
2023-03-27T06:02:21.399Z,65.48
2023-03-27T06:04:56.378Z,62.07
2023-03-27T06:07:47.700Z,60.41
2023-03-27T06:10:22.859Z,62.66
2023-03-27T06:12:49.570Z,62.49
2023-03-27T06:15:31.077Z,64.93
2023-03-27T06:18:16.772Z,63.15
2023-03-27T06:20:44.265Z,62.80
2023-03-27T06:23:12.725Z,63.36
2023-03-27T06:25:40.356Z,62.22
2023-03-27T06:28:10.657Z,65.06
2023-03-27T06:30:43.056Z,63.26
2023-03-27T06:33:49.023Z,62.72
2023-03-27T06:36:34.770Z,64.08
2023-03-27T06:39:06.388Z,63.84
2023-03-27T06:41:33.965Z,60.92
2023-03-27T06:44:19.360Z,63.18
2023-03-27T06:47:06.369Z,64.99
2023-03-27T06:49:59.593Z,62.44
2023-03-27T06:52:27.107Z,60.53
2023-03-27T06:55:01.568Z,61.73
2023-03-27T06:57:31.630Z,62.47
2023-03-27T07:00:02.267Z,61.33
2023-03-27T07:02:54.514Z,63.09
2023-03-27T07:05:49.283Z,60.94
2023-03-27T07:08:24.519Z,61.04
2023-03-27T07:13:24.633Z,61.15
2023-03-27T07:15:51.747Z,60.84
2023-03-27T07:18:22.017Z,58.81
2023-03-27T07:20:50.867Z,61.89
2023-03-27T07:23:21.441Z,57.67
2023-03-27T07:26:01.874Z,60.00
2023-03-27T07:28:51.895Z,58.34
2023-03-27T07:31:35.077Z,62.20
2023-03-27T07:34:07.212Z,62.35
2023-03-27T07:36:54.849Z,59.56
2023-03-27T07:39:22.407Z,62.09
2023-03-27T07:41:49.544Z,61.30
2023-03-27T07:44:22.633Z,61.28
2023-03-27T07:46:58.538Z,59.97
2023-03-27T07:49:38.721Z,62.60
2023-03-27T07:52:11.408Z,59.05
2023-03-27T07:54:59.111Z,61.24
2023-03-27T07:57:42.412Z,61.42
2023-03-27T08:00:19.008Z,59.04
2023-03-27T08:03:11.626Z,61.85
2023-03-27T08:05:43.537Z,60.30
2023-03-27T08:08:17.492Z,60.81
2023-03-27T08:10:47.878Z,60.02
2023-03-27T08:13:18.848Z,60.23
2023-03-27T08:15:46.156Z,59.80
2023-03-27T08:18:21.236Z,60.31
2023-03-27T08:20:48.806Z,60.33
2023-03-27T08:23:16.701Z,59.53
2023-03-27T08:26:03.895Z,60.80
2023-03-27T08:28:37.793Z,60.35
2023-03-27T08:31:16.357Z,61.45
2023-03-27T08:33:44.560Z,60.32
2023-03-27T08:36:20.058Z,61.15
2023-03-27T08:38:47.864Z,59.47
2023-03-27T08:41:57.724Z,57.77
2023-03-27T08:44:33.341Z,57.50
2023-03-27T08:47:12.707Z,58.44
2023-03-27T08:50:02.877Z,59.30
2023-03-27T08:52:34.297Z,59.04
2023-03-27T08:55:18.736Z,55.66
2023-03-27T08:58:17.042Z,54.93
2023-03-27T09:00:46.856Z,57.16
2023-03-27T09:03:36.709Z,59.69
2023-03-27T09:06:18.586Z,60.47
2023-03-27T09:09:02.886Z,60.76
2023-03-27T09:11:48.463Z,59.59
2023-03-27T09:14:27.137Z,57.67
2023-03-27T09:16:58.140Z,57.66
2023-03-27T09:19:46.020Z,56.11
2023-03-27T09:22:23.982Z,55.68
2023-03-27T09:25:15.041Z,56.52
2023-03-27T09:28:03.570Z,58.08
2023-03-27T09:30:38.728Z,61.81
2023-03-27T09:33:12.403Z,62.94
2023-03-27T09:35:41.404Z,62.08
2023-03-27T09:38:36.718Z,63.65
2023-03-27T09:41:39.004Z,61.86
2023-03-27T09:44:12.442Z,60.79
2023-03-27T09:46:48.441Z,61.64
2023-03-27T09:49:21.045Z,59.56
2023-03-27T09:52:02.568Z,60.21
2023-03-27T09:54:52.872Z,57.45
2023-03-27T09:57:33.800Z,59.00
2023-03-27T10:00:10.009Z,56.27
2023-03-27T10:02:41.612Z,56.59
2023-03-27T10:05:20.285Z,58.69
2023-03-27T10:07:52.571Z,59.54
2023-03-27T10:10:55.187Z,55.62
2023-03-27T10:13:36.697Z,55.94
2023-03-27T10:16:06.403Z,55.89
2023-03-27T10:18:44.286Z,55.13
2023-03-27T10:21:32.556Z,56.20
2023-03-27T10:24:26.679Z,56.80
2023-03-27T10:27:25.440Z,53.58
2023-03-27T10:30:28.905Z,56.99
2023-03-27T10:33:07.826Z,55.14
2023-03-27T10:35:55.327Z,55.72
2023-03-27T10:38:32.703Z,57.06
2023-03-27T10:41:00.412Z,51.75
2023-03-27T10:43:43.964Z,52.41
2023-03-27T10:46:15.049Z,53.77
2023-03-27T10:48:51.517Z,56.11
2023-03-27T10:51:47.039Z,51.93
2023-03-27T10:54:39.074Z,48.05
2023-03-27T10:57:29.144Z,51.10
2023-03-27T11:00:22.701Z,52.26
2023-03-27T11:03:16.178Z,53.97
2023-03-27T11:05:48.378Z,51.17
2023-03-27T11:08:39.010Z,50.56
2023-03-27T11:11:19.326Z,51.94
2023-03-27T11:13:51.087Z,52.32
2023-03-27T11:16:27.321Z,47.74
2023-03-27T11:19:43.313Z,50.89
2023-03-27T11:22:38.588Z,48.08
2023-03-27T11:25:21.294Z,49.74
2023-03-27T11:28:04.261Z,49.17
2023-03-27T11:30:42.419Z,48.51
2023-03-27T11:33:24.337Z,48.12
2023-03-27T11:36:05.315Z,47.10
2023-03-27T11:39:03.434Z,47.75
2023-03-27T11:41:31.149Z,48.57
2023-03-27T11:44:01.248Z,48.47
2023-03-27T11:47:26.256Z,42.24
2023-03-27T11:49:55.008Z,40.90
2023-03-27T11:52:28.757Z,36.79
2023-03-27T11:55:18.698Z,40.67
2023-03-27T11:57:59.705Z,47.41
2023-03-27T12:01:08.052Z,42.69
2023-03-27T12:03:44.810Z,44.14
2023-03-27T12:06:25.190Z,44.74
2023-03-27T12:09:11.012Z,35.59
2023-03-27T12:12:25.543Z,40.34
2023-03-27T12:15:11.139Z,44.66
2023-03-27T12:17:37.877Z,43.11
2023-03-27T12:20:21.267Z,46.56
2023-03-27T12:23:09.090Z,45.98
2023-03-27T12:26:16.569Z,46.01
2023-03-27T12:29:23.283Z,49.49
2023-03-27T12:32:00.680Z,47.14
2023-03-27T12:34:50.289Z,45.61
2023-03-27T12:37:24.559Z,41.69
2023-03-27T12:39:56.263Z,38.96
2023-03-27T12:43:05.927Z,37.79
2023-03-27T12:45:47.497Z,41.33
2023-03-27T12:48:20.890Z,45.35
2023-03-27T12:50:52.848Z,44.71
2023-03-27T12:53:39.607Z,51.30
2023-03-27T12:56:19.545Z,54.63
2023-03-27T12:58:53.036Z,45.91
2023-03-27T13:02:04.491Z,46.48
2023-03-27T13:05:24.038Z,44.20
2023-03-27T13:08:17.616Z,41.59
2023-03-27T13:12:09.420Z,44.46
2023-03-27T13:14:37.070Z,47.10
2023-03-27T13:17:41.785Z,43.62
2023-03-27T13:20:27.234Z,43.23
2023-03-27T13:23:10.709Z,46.04
2023-03-27T13:25:51.267Z,43.41
2023-03-27T13:28:28.759Z,43.92
2023-03-27T13:31:11.259Z,43.71
2023-03-27T13:34:26.298Z,41.00
2023-03-27T13:37:11.711Z,43.19
2023-03-27T13:40:07.981Z,43.17
2023-03-27T13:42:43.974Z,41.19
2023-03-27T13:45:24.287Z,41.42
2023-03-27T13:48:20.851Z,40.27
2023-03-27T13:51:22.664Z,43.96
2023-03-27T13:54:15.211Z,42.47
2023-03-27T13:57:01.200Z,43.02
2023-03-27T14:00:00.900Z,42.31
2023-03-27T14:03:10.859Z,39.47
2023-03-27T14:06:08.857Z,39.83
2023-03-27T14:09:10.845Z,41.23
2023-03-27T14:12:12.217Z,41.76
2023-03-27T14:15:17.226Z,42.68
2023-03-27T14:18:15.458Z,41.85
2023-03-27T14:20:49.394Z,41.64
2023-03-27T14:23:35.394Z,42.79
2023-03-27T14:26:18.812Z,41.48
2023-03-27T14:28:53.744Z,40.67
2023-03-27T14:31:36.349Z,43.08
2023-03-27T14:34:35.307Z,40.70
2023-03-27T14:37:30.853Z,42.92
2023-03-27T14:40:18.266Z,41.42
2023-03-27T14:42:48.245Z,38.79
2023-03-27T14:45:27.774Z,39.65
2023-03-27T14:48:08.244Z,38.99
2023-03-27T14:50:49.003Z,40.01
2023-03-27T14:53:26.271Z,42.76
2023-03-27T14:56:18.512Z,41.84
2023-03-27T14:59:28.438Z,43.57
2023-03-27T15:02:00.505Z,42.30
2023-03-27T15:04:30.458Z,44.76
2023-03-27T15:07:18.779Z,45.45
2023-03-27T15:10:16.685Z,45.57
2023-03-27T15:13:02.291Z,46.36
2023-03-27T15:15:42.731Z,48.73
2023-03-27T15:18:24.641Z,45.72
2023-03-27T15:20:54.301Z,40.98
2023-03-27T15:23:31.250Z,43.88
2023-03-27T15:26:09.494Z,44.93
2023-03-27T15:28:43.532Z,46.82
2023-03-27T15:31:10.803Z,46.00
2023-03-27T15:33:48.807Z,49.18
2023-03-27T15:36:28.544Z,45.09
2023-03-27T15:39:00.779Z,44.73
2023-03-27T15:41:27.738Z,44.45
2023-03-27T15:44:17.322Z,45.49
2023-03-27T15:46:48.179Z,46.25
2023-03-27T15:49:37.925Z,50.01
2023-03-27T15:52:33.921Z,51.14
2023-03-27T15:55:01.557Z,51.10
2023-03-27T15:57:29.611Z,52.12
2023-03-27T16:00:10.268Z,53.30
2023-03-27T16:02:40.773Z,50.50
2023-03-27T16:05:07.889Z,46.72
2023-03-27T16:07:43.769Z,51.62
2023-03-27T16:10:12.554Z,47.39
2023-03-27T16:12:55.904Z,50.35
2023-03-27T16:15:38.780Z,51.38
2023-03-27T16:18:27.900Z,48.55
2023-03-27T16:21:06.764Z,46.95
2023-03-27T16:23:33.688Z,47.01
2023-03-27T16:26:02.464Z,48.17
2023-03-27T16:28:30.616Z,48.70
2023-03-27T16:30:58.100Z,49.65
2023-03-27T16:33:27.591Z,49.24
2023-03-27T16:35:56.591Z,50.94
2023-03-27T16:38:23.817Z,49.62
2023-03-27T16:40:51.648Z,48.87
2023-03-27T16:43:18.533Z,48.86
2023-03-27T16:45:45.934Z,48.34
2023-03-27T16:48:13.645Z,49.13
2023-03-27T16:50:40.853Z,48.14
2023-03-27T16:53:08.130Z,48.35
2023-03-27T16:55:34.920Z,45.51
2023-03-27T16:58:03.089Z,47.93
2023-03-27T17:00:29.911Z,48.02
2023-03-27T17:02:56.690Z,49.25
2023-03-27T17:07:51.947Z,48.27
2023-03-27T17:10:18.696Z,49.54
2023-03-27T17:12:45.479Z,48.63
2023-03-27T17:15:12.449Z,48.93
2023-03-27T17:17:39.294Z,50.40
2023-03-27T17:20:08.215Z,49.76
2023-03-27T17:22:35.193Z,48.91
2023-03-27T17:25:03.806Z,51.14
2023-03-27T17:27:30.963Z,52.73
2023-03-27T17:29:58.345Z,54.22
2023-03-27T17:32:26.977Z,51.25
2023-03-27T17:34:54.257Z,59.16
2023-03-27T17:37:22.543Z,55.72
2023-03-27T17:39:49.704Z,54.17
2023-03-27T17:42:16.633Z,54.22
2023-03-27T17:44:45.150Z,53.17
2023-03-27T17:47:12.788Z,54.02
2023-03-27T17:49:41.282Z,49.70
2023-03-27T17:52:11.933Z,47.18
2023-03-27T17:54:39.586Z,50.22
2023-03-27T17:57:07.216Z,48.08
2023-03-27T17:59:34.084Z,46.94
2023-03-27T18:02:01.477Z,46.78
2023-03-27T18:04:29.558Z,49.15
2023-03-27T18:06:57.131Z,52.88
2023-03-27T18:09:24.293Z,52.18
2023-03-27T18:11:51.208Z,49.24
2023-03-27T18:14:18.403Z,49.46
2023-03-27T18:16:45.252Z,50.26
2023-03-27T18:19:12.381Z,51.41
2023-03-27T18:21:39.200Z,49.99
2023-03-27T18:24:06.302Z,46.70
2023-03-27T18:26:33.329Z,47.79
2023-03-27T18:29:00.549Z,51.02
2023-03-27T18:31:27.302Z,51.81
2023-03-27T18:33:54.339Z,48.49
2023-03-27T18:36:21.115Z,48.50
2023-03-27T18:38:49.619Z,47.14
2023-03-27T18:41:17.066Z,47.56
2023-03-27T18:43:43.953Z,46.37
2023-03-27T18:46:16.589Z,49.87
2023-03-27T18:48:44.872Z,50.49
2023-03-27T18:51:12.754Z,49.35
2023-03-27T18:53:39.615Z,52.05
2023-03-27T18:56:07.457Z,50.92
2023-03-27T18:58:35.786Z,50.67
2023-03-27T19:01:03.192Z,51.91
2023-03-27T19:03:35.130Z,52.59
2023-03-27T19:06:04.927Z,53.40
2023-03-27T19:08:33.069Z,52.60
2023-03-27T19:11:00.102Z,48.96
2023-03-27T19:13:48.772Z,51.22
2023-03-27T19:16:23.351Z,48.25
2023-03-27T19:19:13.360Z,50.37
2023-03-27T19:21:52.761Z,52.47
2023-03-27T19:24:41.310Z,54.52
2023-03-27T19:27:23.450Z,52.44
2023-03-27T19:29:51.289Z,55.19
2023-03-27T19:32:18.079Z,51.60
2023-03-27T19:34:44.797Z,55.03
2023-03-27T19:37:11.652Z,51.46
2023-03-27T19:39:38.862Z,55.11
2023-03-27T19:42:05.912Z,55.50
2023-03-27T19:44:35.941Z,55.22
2023-03-27T19:47:03.912Z,57.87
2023-03-27T19:49:30.900Z,56.37
2023-03-27T19:52:16.870Z,57.87
2023-03-27T19:54:43.671Z,52.62
2023-03-27T19:57:10.470Z,53.85
2023-03-27T19:59:37.250Z,53.06
2023-03-27T20:02:04.311Z,56.36
2023-03-27T20:04:31.155Z,53.93
2023-03-27T20:06:59.087Z,55.84
2023-03-27T20:09:25.938Z,55.45
2023-03-27T20:11:54.237Z,53.75
2023-03-27T20:14:21.207Z,51.76
2023-03-27T20:16:48.301Z,50.33
2023-03-27T20:19:16.787Z,50.29
2023-03-27T20:21:43.887Z,53.49
2023-03-27T20:24:17.295Z,53.21
2023-03-27T20:26:53.218Z,51.13
2023-03-27T20:29:25.360Z,49.59
2023-03-27T20:31:52.120Z,48.50
2023-03-27T20:34:22.802Z,49.28
2023-03-27T20:36:55.420Z,50.83
2023-03-27T20:39:31.191Z,52.41
2023-03-27T20:41:59.111Z,51.90
2023-03-27T20:44:36.117Z,53.88
2023-03-27T20:47:10.886Z,55.71
2023-03-27T20:49:45.359Z,52.85
2023-03-27T20:52:15.126Z,54.57
2023-03-27T20:54:42.359Z,54.37
2023-03-27T20:57:12.066Z,51.39
2023-03-27T20:59:39.783Z,52.11
2023-03-27T21:02:06.907Z,50.32
2023-03-27T21:04:33.905Z,50.75
2023-03-27T21:07:00.622Z,54.30
2023-03-27T21:09:27.884Z,51.73
2023-03-27T21:11:56.515Z,53.30
2023-03-27T21:14:24.007Z,53.46
2023-03-27T21:16:51.600Z,55.29
2023-03-27T21:19:20.695Z,53.01
2023-03-27T21:21:47.593Z,54.41
2023-03-27T21:24:14.467Z,53.56
2023-03-27T21:26:41.621Z,54.52
2023-03-27T21:29:11.994Z,55.79
2023-03-27T21:31:40.096Z,53.29
2023-03-27T21:34:07.638Z,54.74
2023-03-27T21:36:34.894Z,55.57
2023-03-27T21:39:01.722Z,53.84
2023-03-27T21:41:28.933Z,53.38
2023-03-27T21:43:56.377Z,55.50
2023-03-27T21:46:23.135Z,52.67
2023-03-27T21:48:50.606Z,54.12
2023-03-27T21:51:17.673Z,52.11
2023-03-27T21:53:45.730Z,52.95
2023-03-27T21:56:12.912Z,53.93
2023-03-27T21:58:40.133Z,53.74
2023-03-27T22:01:07.184Z,54.40
2023-03-27T22:03:34.050Z,55.22
2023-03-27T22:08:38.130Z,57.12
2023-03-27T22:11:06.027Z,55.56
2023-03-27T22:13:36.273Z,54.54
2023-03-27T22:16:12.089Z,54.33
2023-03-27T22:18:39.649Z,55.98
2023-03-27T22:21:15.585Z,52.91
2023-03-27T22:23:43.005Z,55.19
2023-03-27T22:26:10.215Z,56.23
2023-03-27T22:28:37.277Z,54.80
2023-03-27T22:31:04.729Z,54.18
2023-03-27T22:33:32.104Z,56.74
2023-03-27T22:35:59.451Z,55.73
2023-03-27T22:38:30.487Z,55.43
2023-03-27T22:40:57.949Z,55.96
2023-03-27T22:43:25.774Z,56.66
2023-03-27T22:45:52.593Z,53.67
2023-03-27T22:48:19.550Z,54.33
2023-03-27T22:50:54.873Z,53.79
2023-03-27T22:53:23.141Z,54.64
2023-03-27T22:55:51.030Z,54.04
2023-03-27T22:58:18.156Z,53.78
2023-03-27T23:00:49.990Z,54.12
2023-03-27T23:03:17.220Z,54.13
2023-03-27T23:05:49.709Z,52.08
2023-03-27T23:08:18.118Z,52.13
2023-03-27T23:10:45.296Z,53.43
2023-03-27T23:13:13.056Z,52.60
2023-03-27T23:15:40.240Z,54.75
2023-03-27T23:18:07.330Z,53.90
2023-03-27T23:20:34.138Z,51.79
2023-03-27T23:23:00.936Z,52.27
2023-03-27T23:25:27.646Z,53.33
2023-03-27T23:27:54.406Z,53.39
2023-03-27T23:30:21.551Z,51.57
2023-03-27T23:32:48.311Z,53.51
2023-03-27T23:35:15.090Z,52.15
2023-03-27T23:37:42.240Z,53.02
2023-03-27T23:40:09.574Z,54.41
2023-03-27T23:42:36.400Z,54.09
2023-03-27T23:45:03.285Z,53.61
2023-03-27T23:47:30.157Z,52.60
2023-03-27T23:49:57.409Z,54.15
2023-03-27T23:52:24.275Z,54.65
2023-03-27T23:54:51.315Z,51.04
2023-03-27T23:57:18.142Z,52.92
2023-03-27T23:59:45.063Z,56.10
